sensor_id;sensor_type;location;lat;lon;timestamp;pressure;altitude;pressure_sealevel;temperature;humidity
35910;BME280;22004;49.120;-0.200;2023-02-04T00:01:35;103538.75;;;10.67;73.77
35910;BME280;22004;49.120;-0.200;2023-02-04T00:04:00;103543.69;;;10.36;74.72
35910;BME280;22004;49.120;-0.200;2023-02-04T00:06:26;103541.25;;;10.70;73.44
35910;BME280;22004;49.120;-0.200;2023-02-04T00:08:51;103536.56;;;10.48;74.59
35910;BME280;22004;49.120;-0.200;2023-02-04T00:11:17;103546.97;;;10.52;74.55
35910;BME280;22004;49.120;-0.200;2023-02-04T00:13:42;103545.81;;;10.44;74.84
35910;BME280;22004;49.120;-0.200;2023-02-04T00:16:07;103540.19;;;10.59;73.88
35910;BME280;22004;49.120;-0.200;2023-02-04T00:18:33;103536.63;;;10.35;74.94
35910;BME280;22004;49.120;-0.200;2023-02-04T00:20:58;103536.81;;;10.45;74.44
35910;BME280;22004;49.120;-0.200;2023-02-04T00:23:26;103540.00;;;10.50;74.63
35910;BME280;22004;49.120;-0.200;2023-02-04T00:25:51;103524.03;;;10.72;73.74
35910;BME280;22004;49.120;-0.200;2023-02-04T00:28:17;103536.38;;;10.75;73.42
35910;BME280;22004;49.120;-0.200;2023-02-04T00:30:43;103537.78;;;10.68;73.50
35910;BME280;22004;49.120;-0.200;2023-02-04T00:33:08;103539.91;;;10.51;74.19
35910;BME280;22004;49.120;-0.200;2023-02-04T00:35:33;103540.28;;;10.58;74.19
35910;BME280;22004;49.120;-0.200;2023-02-04T00:38:01;103536.09;;;10.54;74.25
35910;BME280;22004;49.120;-0.200;2023-02-04T00:40:27;103539.03;;;10.51;74.19
35910;BME280;22004;49.120;-0.200;2023-02-04T00:42:52;103543.44;;;10.52;73.99
35910;BME280;22004;49.120;-0.200;2023-02-04T00:45:17;103547.75;;;10.42;74.65
35910;BME280;22004;49.120;-0.200;2023-02-04T00:47:43;103543.84;;;10.58;74.11
35910;BME280;22004;49.120;-0.200;2023-02-04T00:50:08;103542.59;;;10.51;74.47
35910;BME280;22004;49.120;-0.200;2023-02-04T00:52:34;103540.63;;;10.53;74.20
35910;BME280;22004;49.120;-0.200;2023-02-04T00:54:59;103546.94;;;10.65;73.50
35910;BME280;22004;49.120;-0.200;2023-02-04T00:57:24;103543.28;;;10.66;73.50
35910;BME280;22004;49.120;-0.200;2023-02-04T00:59:53;103541.91;;;10.60;73.63
35910;BME280;22004;49.120;-0.200;2023-02-04T01:02:18;103543.25;;;10.42;74.63
35910;BME280;22004;49.120;-0.200;2023-02-04T01:04:43;103552.81;;;10.33;74.55
35910;BME280;22004;49.120;-0.200;2023-02-04T01:07:09;103548.59;;;10.55;73.96
35910;BME280;22004;49.120;-0.200;2023-02-04T01:09:34;103548.19;;;10.23;75.46
35910;BME280;22004;49.120;-0.200;2023-02-04T01:11:59;103547.44;;;10.33;75.02
35910;BME280;22004;49.120;-0.200;2023-02-04T01:14:25;103544.00;;;10.19;75.45
35910;BME280;22004;49.120;-0.200;2023-02-04T01:16:51;103546.44;;;10.47;74.22
35910;BME280;22004;49.120;-0.200;2023-02-04T01:19:16;103550.47;;;10.29;75.06
35910;BME280;22004;49.120;-0.200;2023-02-04T01:21:41;103546.81;;;10.17;75.60
35910;BME280;22004;49.120;-0.200;2023-02-04T01:24:07;103549.06;;;10.36;74.80
35910;BME280;22004;49.120;-0.200;2023-02-04T01:26:32;103548.53;;;10.31;75.06
35910;BME280;22004;49.120;-0.200;2023-02-04T01:28:58;103556.16;;;10.37;74.99
35910;BME280;22004;49.120;-0.200;2023-02-04T01:31:23;103549.84;;;10.25;75.40
35910;BME280;22004;49.120;-0.200;2023-02-04T01:33:49;103547.13;;;10.38;74.69
35910;BME280;22004;49.120;-0.200;2023-02-04T01:36:14;103548.06;;;10.50;74.29
35910;BME280;22004;49.120;-0.200;2023-02-04T01:38:48;103553.25;;;10.27;75.20
35910;BME280;22004;49.120;-0.200;2023-02-04T01:41:14;103543.25;;;10.42;74.67
35910;BME280;22004;49.120;-0.200;2023-02-04T01:43:39;103551.84;;;10.22;75.12
35910;BME280;22004;49.120;-0.200;2023-02-04T01:46:05;103555.81;;;10.42;74.60
35910;BME280;22004;49.120;-0.200;2023-02-04T01:48:31;103548.22;;;10.10;75.79
35910;BME280;22004;49.120;-0.200;2023-02-04T01:51:02;103551.22;;;10.31;75.13
35910;BME280;22004;49.120;-0.200;2023-02-04T01:53:28;103550.22;;;10.45;74.64
35910;BME280;22004;49.120;-0.200;2023-02-04T01:55:54;103547.63;;;10.56;74.18
35910;BME280;22004;49.120;-0.200;2023-02-04T01:58:19;103545.63;;;10.08;76.06
35910;BME280;22004;49.120;-0.200;2023-02-04T02:00:45;103547.88;;;10.40;74.66
35910;BME280;22004;49.120;-0.200;2023-02-04T02:03:10;103546.19;;;10.63;73.98
35910;BME280;22004;49.120;-0.200;2023-02-04T02:05:42;103547.44;;;10.46;74.52
35910;BME280;22004;49.120;-0.200;2023-02-04T02:08:09;103546.97;;;10.52;74.33
35910;BME280;22004;49.120;-0.200;2023-02-04T02:10:36;103551.31;;;10.42;74.78
35910;BME280;22004;49.120;-0.200;2023-02-04T02:13:03;103546.78;;;10.43;74.77
35910;BME280;22004;49.120;-0.200;2023-02-04T02:15:29;103547.66;;;10.18;75.40
35910;BME280;22004;49.120;-0.200;2023-02-04T02:17:55;103541.56;;;10.65;73.82
35910;BME280;22004;49.120;-0.200;2023-02-04T02:20:23;103544.53;;;10.73;73.53
35910;BME280;22004;49.120;-0.200;2023-02-04T02:25:32;103541.16;;;10.58;74.03
35910;BME280;22004;49.120;-0.200;2023-02-04T02:27:59;103540.63;;;10.53;73.73
35910;BME280;22004;49.120;-0.200;2023-02-04T02:30:26;103545.59;;;10.47;74.12
35910;BME280;22004;49.120;-0.200;2023-02-04T02:32:52;103542.38;;;10.78;73.32
35910;BME280;22004;49.120;-0.200;2023-02-04T02:35:18;103544.63;;;10.48;74.22
35910;BME280;22004;49.120;-0.200;2023-02-04T02:37:44;103541.34;;;10.68;73.56
35910;BME280;22004;49.120;-0.200;2023-02-04T02:40:10;103538.50;;;10.46;74.11
35910;BME280;22004;49.120;-0.200;2023-02-04T02:42:36;103535.59;;;10.49;74.49
35910;BME280;22004;49.120;-0.200;2023-02-04T02:45:10;103538.13;;;10.63;73.71
35910;BME280;22004;49.120;-0.200;2023-02-04T02:47:37;103534.31;;;10.78;72.79
35910;BME280;22004;49.120;-0.200;2023-02-04T02:50:02;103542.53;;;10.88;72.70
35910;BME280;22004;49.120;-0.200;2023-02-04T02:52:28;103546.78;;;10.43;73.84
35910;BME280;22004;49.120;-0.200;2023-02-04T02:54:55;103539.09;;;10.62;73.22
35910;BME280;22004;49.120;-0.200;2023-02-04T02:57:22;103538.56;;;10.70;73.27
35910;BME280;22004;49.120;-0.200;2023-02-04T02:59:48;103535.44;;;10.63;73.76
35910;BME280;22004;49.120;-0.200;2023-02-04T03:02:17;103536.28;;;10.64;73.33
35910;BME280;22004;49.120;-0.200;2023-02-04T03:04:49;103545.38;;;10.74;73.15
35910;BME280;22004;49.120;-0.200;2023-02-04T03:07:16;103548.53;;;10.68;73.44
35910;BME280;22004;49.120;-0.200;2023-02-04T03:09:43;103536.25;;;10.76;73.07
35910;BME280;22004;49.120;-0.200;2023-02-04T03:12:09;103546.44;;;10.60;73.71
35910;BME280;22004;49.120;-0.200;2023-02-04T03:14:34;103548.84;;;10.76;73.10
35910;BME280;22004;49.120;-0.200;2023-02-04T03:17:03;103551.81;;;10.84;72.82
35910;BME280;22004;49.120;-0.200;2023-02-04T03:19:30;103548.00;;;10.75;73.10
35910;BME280;22004;49.120;-0.200;2023-02-04T03:21:56;103555.47;;;10.83;73.01
35910;BME280;22004;49.120;-0.200;2023-02-04T03:24:22;103548.00;;;10.75;72.63
35910;BME280;22004;49.120;-0.200;2023-02-04T03:26:48;103546.38;;;10.73;72.78
35910;BME280;22004;49.120;-0.200;2023-02-04T03:29:14;103545.91;;;10.79;72.74
35910;BME280;22004;49.120;-0.200;2023-02-04T03:31:39;103548.78;;;10.65;73.70
35910;BME280;22004;49.120;-0.200;2023-02-04T03:34:05;103548.19;;;10.72;73.06
35910;BME280;22004;49.120;-0.200;2023-02-04T03:36:30;103543.41;;;10.88;72.47
35910;BME280;22004;49.120;-0.200;2023-02-04T03:38:55;103540.88;;;10.98;72.01
35910;BME280;22004;49.120;-0.200;2023-02-04T03:41:21;103545.81;;;11.04;71.50
35910;BME280;22004;49.120;-0.200;2023-02-04T03:43:47;103539.81;;;10.77;72.55
35910;BME280;22004;49.120;-0.200;2023-02-04T03:46:12;103535.59;;;10.85;72.12
35910;BME280;22004;49.120;-0.200;2023-02-04T03:48:37;103543.63;;;10.61;73.04
35910;BME280;22004;49.120;-0.200;2023-02-04T03:51:03;103544.25;;;10.65;73.04
35910;BME280;22004;49.120;-0.200;2023-02-04T03:53:29;103554.56;;;10.58;73.35
35910;BME280;22004;49.120;-0.200;2023-02-04T03:55:56;103544.72;;;10.83;72.56
35910;BME280;22004;49.120;-0.200;2023-02-04T03:58:22;103548.97;;;10.74;72.73
35910;BME280;22004;49.120;-0.200;2023-02-04T04:00:47;103552.31;;;10.65;73.07
35910;BME280;22004;49.120;-0.200;2023-02-04T04:03:15;103553.19;;;10.66;73.10
35910;BME280;22004;49.120;-0.200;2023-02-04T04:05:41;103552.31;;;10.65;72.99
35910;BME280;22004;49.120;-0.200;2023-02-04T04:08:07;103549.91;;;10.73;72.89
35910;BME280;22004;49.120;-0.200;2023-02-04T04:10:32;103550.75;;;10.74;72.27
35910;BME280;22004;49.120;-0.200;2023-02-04T04:12:57;103558.91;;;10.48;73.44
35910;BME280;22004;49.120;-0.200;2023-02-04T04:15:23;103558.06;;;10.48;73.82
35910;BME280;22004;49.120;-0.200;2023-02-04T04:17:48;103560.66;;;10.37;74.32
35910;BME280;22004;49.120;-0.200;2023-02-04T04:20:14;103556.00;;;10.51;73.53
35910;BME280;22004;49.120;-0.200;2023-02-04T04:22:39;103555.41;;;10.35;74.24
35910;BME280;22004;49.120;-0.200;2023-02-04T04:25:05;103555.94;;;10.40;74.26
35910;BME280;22004;49.120;-0.200;2023-02-04T04:27:31;103559.34;;;10.55;73.70
35910;BME280;22004;49.120;-0.200;2023-02-04T04:29:56;103564.28;;;10.48;73.89
35910;BME280;22004;49.120;-0.200;2023-02-04T04:32:22;103564.72;;;10.55;73.72
35910;BME280;22004;49.120;-0.200;2023-02-04T04:34:47;103555.81;;;10.54;73.40
35910;BME280;22004;49.120;-0.200;2023-02-04T04:37:12;103562.91;;;10.43;74.26
35910;BME280;22004;49.120;-0.200;2023-02-04T04:39:38;103561.00;;;10.32;74.50
35910;BME280;22004;49.120;-0.200;2023-02-04T04:42:03;103565.97;;;10.62;73.38
35910;BME280;22004;49.120;-0.200;2023-02-04T04:44:31;103566.63;;;10.53;73.77
35910;BME280;22004;49.120;-0.200;2023-02-04T04:46:56;103562.50;;;10.73;72.74
35910;BME280;22004;49.120;-0.200;2023-02-04T04:49:22;103565.25;;;10.60;73.33
35910;BME280;22004;49.120;-0.200;2023-02-04T04:51:48;103570.28;;;10.52;73.61
35910;BME280;22004;49.120;-0.200;2023-02-04T04:54:13;103564.13;;;10.63;73.15
35910;BME280;22004;49.120;-0.200;2023-02-04T04:56:38;103559.88;;;10.84;72.48
35910;BME280;22004;49.120;-0.200;2023-02-04T04:59:03;103561.91;;;10.56;73.36
35910;BME280;22004;49.120;-0.200;2023-02-04T05:01:29;103564.56;;;10.69;73.12
35910;BME280;22004;49.120;-0.200;2023-02-04T05:03:54;103564.81;;;10.53;73.48
35910;BME280;22004;49.120;-0.200;2023-02-04T05:06:19;103568.00;;;10.58;73.66
35910;BME280;22004;49.120;-0.200;2023-02-04T05:08:52;103570.59;;;10.60;73.21
35910;BME280;22004;49.120;-0.200;2023-02-04T05:11:18;103575.97;;;10.60;73.12
35910;BME280;22004;49.120;-0.200;2023-02-04T05:13:43;103574.41;;;10.32;74.45
35910;BME280;22004;49.120;-0.200;2023-02-04T05:16:11;103576.53;;;10.52;73.63
35910;BME280;22004;49.120;-0.200;2023-02-04T05:18:37;103571.72;;;10.32;74.32
35910;BME280;22004;49.120;-0.200;2023-02-04T05:21:03;103570.16;;;10.29;74.68
35910;BME280;22004;49.120;-0.200;2023-02-04T05:23:28;103580.59;;;10.58;73.63
35910;BME280;22004;49.120;-0.200;2023-02-04T05:25:54;103574.69;;;10.53;73.74
35910;BME280;22004;49.120;-0.200;2023-02-04T05:28:19;103569.97;;;10.56;73.53
35910;BME280;22004;49.120;-0.200;2023-02-04T05:30:44;103573.63;;;10.55;73.60
35910;BME280;22004;49.120;-0.200;2023-02-04T05:33:10;103577.31;;;10.16;74.91
35910;BME280;22004;49.120;-0.200;2023-02-04T05:35:35;103576.00;;;10.09;75.21
35910;BME280;22004;49.120;-0.200;2023-02-04T05:38:00;103580.84;;;10.55;73.62
35910;BME280;22004;49.120;-0.200;2023-02-04T05:40:26;103584.31;;;10.68;73.02
35910;BME280;22004;49.120;-0.200;2023-02-04T05:42:51;103579.66;;;10.46;73.69
35910;BME280;22004;49.120;-0.200;2023-02-04T05:45:16;103587.31;;;10.27;74.68
35910;BME280;22004;49.120;-0.200;2023-02-04T05:47:43;103591.78;;;10.39;74.11
35910;BME280;22004;49.120;-0.200;2023-02-04T05:50:09;103584.50;;;10.16;74.87
35910;BME280;22004;49.120;-0.200;2023-02-04T05:52:34;103586.56;;;10.25;74.80
35910;BME280;22004;49.120;-0.200;2023-02-04T05:55:00;103582.59;;;10.30;74.31
35910;BME280;22004;49.120;-0.200;2023-02-04T05:57:25;103599.59;;;10.68;72.80
35910;BME280;22004;49.120;-0.200;2023-02-04T05:59:50;103594.81;;;10.84;72.20
35910;BME280;22004;49.120;-0.200;2023-02-04T06:02:16;103595.91;;;10.81;72.59
35910;BME280;22004;49.120;-0.200;2023-02-04T06:04:41;103602.00;;;10.83;72.49
35910;BME280;22004;49.120;-0.200;2023-02-04T06:07:06;103595.03;;;10.81;72.33
35910;BME280;22004;49.120;-0.200;2023-02-04T06:09:32;103604.88;;;10.69;72.79
35910;BME280;22004;49.120;-0.200;2023-02-04T06:11:57;103602.34;;;10.79;72.23
35910;BME280;22004;49.120;-0.200;2023-02-04T06:14:23;103610.00;;;10.72;72.31
35910;BME280;22004;49.120;-0.200;2023-02-04T06:16:48;103614.13;;;10.65;72.69
35910;BME280;22004;49.120;-0.200;2023-02-04T06:19:13;103610.72;;;10.50;73.64
35910;BME280;22004;49.120;-0.200;2023-02-04T06:21:39;103609.63;;;10.53;73.06
35910;BME280;22004;49.120;-0.200;2023-02-04T06:24:04;103611.38;;;10.41;74.08
35910;BME280;22004;49.120;-0.200;2023-02-04T06:26:30;103615.63;;;10.44;73.98
35910;BME280;22004;49.120;-0.200;2023-02-04T06:28:55;103617.06;;;10.37;73.73
35910;BME280;22004;49.120;-0.200;2023-02-04T06:31:20;103621.00;;;10.44;73.44
35910;BME280;22004;49.120;-0.200;2023-02-04T06:33:46;103616.94;;;10.00;75.04
35910;BME280;22004;49.120;-0.200;2023-02-04T06:36:11;103612.94;;;9.93;74.47
35910;BME280;22004;49.120;-0.200;2023-02-04T06:38:36;103618.13;;;10.47;73.49
35910;BME280;22004;49.120;-0.200;2023-02-04T06:41:02;103620.63;;;10.74;72.73
35910;BME280;22004;49.120;-0.200;2023-02-04T06:43:27;103614.53;;;10.72;72.42
35910;BME280;22004;49.120;-0.200;2023-02-04T06:45:55;103617.53;;;10.80;72.29
35910;BME280;22004;49.120;-0.200;2023-02-04T06:48:23;103623.63;;;10.82;72.09
35910;BME280;22004;49.120;-0.200;2023-02-04T06:50:48;103618.41;;;10.68;72.54
35910;BME280;22004;49.120;-0.200;2023-02-04T06:53:14;103625.00;;;10.87;72.05
35910;BME280;22004;49.120;-0.200;2023-02-04T06:55:39;103627.63;;;10.76;72.31
35910;BME280;22004;49.120;-0.200;2023-02-04T06:58:04;103629.00;;;10.82;72.12
35910;BME280;22004;49.120;-0.200;2023-02-04T07:00:33;103624.16;;;10.87;71.82
35910;BME280;22004;49.120;-0.200;2023-02-04T07:03:01;103627.69;;;10.87;72.00
35910;BME280;22004;49.120;-0.200;2023-02-04T07:05:26;103627.94;;;10.84;72.01
35910;BME280;22004;49.120;-0.200;2023-02-04T07:07:51;103629.97;;;10.81;72.24
35910;BME280;22004;49.120;-0.200;2023-02-04T07:10:17;103632.44;;;10.84;72.28
35910;BME280;22004;49.120;-0.200;2023-02-04T07:12:45;103633.94;;;10.88;71.95
35910;BME280;22004;49.120;-0.200;2023-02-04T07:15:10;103639.53;;;10.85;72.08
35910;BME280;22004;49.120;-0.200;2023-02-04T07:17:36;103642.84;;;10.88;71.76
35910;BME280;22004;49.120;-0.200;2023-02-04T07:20:01;103635.53;;;10.91;71.79
35910;BME280;22004;49.120;-0.200;2023-02-04T07:22:26;103638.22;;;10.91;71.71
35910;BME280;22004;49.120;-0.200;2023-02-04T07:24:52;103634.78;;;10.88;71.61
35910;BME280;22004;49.120;-0.200;2023-02-04T07:27:17;103632.78;;;10.79;71.76
35910;BME280;22004;49.120;-0.200;2023-02-04T07:29:42;103641.84;;;11.02;71.50
35910;BME280;22004;49.120;-0.200;2023-02-04T07:32:08;103647.56;;;10.98;71.50
35910;BME280;22004;49.120;-0.200;2023-02-04T07:34:33;103647.66;;;10.96;71.44
35910;BME280;22004;49.120;-0.200;2023-02-04T07:36:59;103646.56;;;10.99;71.62
35910;BME280;22004;49.120;-0.200;2023-02-04T07:39:24;103653.56;;;11.01;71.45
35910;BME280;22004;49.120;-0.200;2023-02-04T07:41:49;103649.84;;;10.91;71.90
35910;BME280;22004;49.120;-0.200;2023-02-04T07:44:15;103654.34;;;10.91;72.02
35910;BME280;22004;49.120;-0.200;2023-02-04T07:46:40;103654.13;;;10.94;71.38
35910;BME280;22004;49.120;-0.200;2023-02-04T07:49:05;103654.75;;;10.97;71.63
35910;BME280;22004;49.120;-0.200;2023-02-04T07:51:31;103658.44;;;10.96;71.65
35910;BME280;22004;49.120;-0.200;2023-02-04T07:53:56;103650.34;;;11.09;71.29
35910;BME280;22004;49.120;-0.200;2023-02-04T07:56:24;103656.91;;;11.05;71.51
35910;BME280;22004;49.120;-0.200;2023-02-04T07:58:49;103651.84;;;11.00;71.55
35910;BME280;22004;49.120;-0.200;2023-02-04T08:01:15;103656.44;;;11.11;71.10
35910;BME280;22004;49.120;-0.200;2023-02-04T08:03:40;103655.19;;;11.28;70.68
35910;BME280;22004;49.120;-0.200;2023-02-04T08:06:07;103656.56;;;11.09;71.15
35910;BME280;22004;49.120;-0.200;2023-02-04T08:08:34;103652.38;;;11.05;71.02
35910;BME280;22004;49.120;-0.200;2023-02-04T08:10:59;103663.53;;;11.12;71.02
35910;BME280;22004;49.120;-0.200;2023-02-04T08:13:25;103652.78;;;11.12;71.10
35910;BME280;22004;49.120;-0.200;2023-02-04T08:15:50;103657.09;;;11.15;71.09
35910;BME280;22004;49.120;-0.200;2023-02-04T08:18:16;103661.19;;;11.07;71.23
35910;BME280;22004;49.120;-0.200;2023-02-04T08:20:41;103665.38;;;11.11;71.27
35910;BME280;22004;49.120;-0.200;2023-02-04T08:23:07;103661.47;;;11.16;70.85
35910;BME280;22004;49.120;-0.200;2023-02-04T08:25:32;103663.31;;;11.15;70.98
35910;BME280;22004;49.120;-0.200;2023-02-04T08:28:01;103655.97;;;11.17;70.82
35910;BME280;22004;49.120;-0.200;2023-02-04T08:30:26;103663.59;;;11.23;70.63
35910;BME280;22004;49.120;-0.200;2023-02-04T08:32:52;103663.88;;;11.31;70.64
35910;BME280;22004;49.120;-0.200;2023-02-04T08:35:17;103662.06;;;11.32;70.34
35910;BME280;22004;49.120;-0.200;2023-02-04T08:37:42;103668.72;;;11.39;70.13
35910;BME280;22004;49.120;-0.200;2023-02-04T08:40:08;103658.28;;;11.34;70.13
35910;BME280;22004;49.120;-0.200;2023-02-04T08:42:34;103656.03;;;11.28;70.30
35910;BME280;22004;49.120;-0.200;2023-02-04T08:44:59;103661.88;;;11.22;70.58
35910;BME280;22004;49.120;-0.200;2023-02-04T08:47:27;103671.25;;;11.17;70.60
35910;BME280;22004;49.120;-0.200;2023-02-04T08:49:53;103668.06;;;11.11;71.09
35910;BME280;22004;49.120;-0.200;2023-02-04T08:52:18;103673.13;;;11.03;71.46
35910;BME280;22004;49.120;-0.200;2023-02-04T08:54:43;103668.34;;;10.83;72.12
35910;BME280;22004;49.120;-0.200;2023-02-04T08:57:09;103673.25;;;11.02;71.66
35910;BME280;22004;49.120;-0.200;2023-02-04T08:59:37;103672.06;;;10.93;71.68
35910;BME280;22004;49.120;-0.200;2023-02-04T09:02:02;103671.84;;;11.09;71.34
35910;BME280;22004;49.120;-0.200;2023-02-04T09:04:28;103674.63;;;11.07;70.95
35910;BME280;22004;49.120;-0.200;2023-02-04T09:06:53;103671.72;;;11.10;71.27
35910;BME280;22004;49.120;-0.200;2023-02-04T09:09:19;103680.25;;;11.04;71.47
35910;BME280;22004;49.120;-0.200;2023-02-04T09:11:44;103680.75;;;11.09;71.26
35910;BME280;22004;49.120;-0.200;2023-02-04T09:14:12;103682.94;;;11.28;70.33
35910;BME280;22004;49.120;-0.200;2023-02-04T09:16:37;103681.53;;;11.35;70.39
35910;BME280;22004;49.120;-0.200;2023-02-04T09:19:03;103685.97;;;11.24;70.53
35910;BME280;22004;49.120;-0.200;2023-02-04T09:21:30;103690.91;;;11.30;70.33
35910;BME280;22004;49.120;-0.200;2023-02-04T09:23:55;103700.03;;;11.27;70.50
35910;BME280;22004;49.120;-0.200;2023-02-04T09:26:23;103697.19;;;11.18;70.78
35910;BME280;22004;49.120;-0.200;2023-02-04T09:28:48;103707.19;;;11.16;71.17
35910;BME280;22004;49.120;-0.200;2023-02-04T09:31:14;103704.63;;;11.14;70.96
35910;BME280;22004;49.120;-0.200;2023-02-04T09:33:40;103703.34;;;11.07;71.37
35910;BME280;22004;49.120;-0.200;2023-02-04T09:36:06;103710.16;;;11.24;70.65
35910;BME280;22004;49.120;-0.200;2023-02-04T09:38:31;103709.22;;;11.25;70.60
35910;BME280;22004;49.120;-0.200;2023-02-04T09:41:00;103703.53;;;11.17;70.57
35910;BME280;22004;49.120;-0.200;2023-02-04T09:43:29;103708.97;;;11.28;70.11
35910;BME280;22004;49.120;-0.200;2023-02-04T09:45:56;103716.25;;;11.02;71.30
35910;BME280;22004;49.120;-0.200;2023-02-04T09:48:23;103715.09;;;10.93;71.44
35910;BME280;22004;49.120;-0.200;2023-02-04T09:50:52;103716.63;;;10.84;71.81
35910;BME280;22004;49.120;-0.200;2023-02-04T09:53:28;103710.16;;;11.00;70.78
35910;BME280;22004;49.120;-0.200;2023-02-04T09:55:54;103712.50;;;10.92;71.09
35910;BME280;22004;49.120;-0.200;2023-02-04T09:58:21;103713.94;;;10.72;71.35
35910;BME280;22004;49.120;-0.200;2023-02-04T10:01:12;103723.19;;;10.80;70.00
35910;BME280;22004;49.120;-0.200;2023-02-04T10:03:39;103716.97;;;10.54;71.01
35910;BME280;22004;49.120;-0.200;2023-02-04T10:06:11;103721.16;;;10.46;70.50
35910;BME280;22004;49.120;-0.200;2023-02-04T10:08:38;103729.91;;;10.99;70.55
35910;BME280;22004;49.120;-0.200;2023-02-04T10:11:04;103730.03;;;10.97;71.09
35910;BME280;22004;49.120;-0.200;2023-02-04T10:13:35;103731.13;;;10.95;71.47
35910;BME280;22004;49.120;-0.200;2023-02-04T10:16:03;103726.28;;;11.00;70.80
35910;BME280;22004;49.120;-0.200;2023-02-04T10:18:35;103733.69;;;10.96;70.32
35910;BME280;22004;49.120;-0.200;2023-02-04T10:21:13;103738.28;;;11.07;70.66
35910;BME280;22004;49.120;-0.200;2023-02-04T10:23:40;103746.06;;;10.73;70.57
35910;BME280;22004;49.120;-0.200;2023-02-04T10:26:10;103749.81;;;11.09;70.72
35910;BME280;22004;49.120;-0.200;2023-02-04T10:28:36;103746.63;;;11.28;69.94
35910;BME280;22004;49.120;-0.200;2023-02-04T10:31:02;103749.97;;;11.31;69.91
35910;BME280;22004;49.120;-0.200;2023-02-04T10:33:28;103751.78;;;11.31;70.13
35910;BME280;22004;49.120;-0.200;2023-02-04T10:35:55;103749.03;;;11.07;69.96
35910;BME280;22004;49.120;-0.200;2023-02-04T10:38:21;103750.81;;;10.82;71.22
35910;BME280;22004;49.120;-0.200;2023-02-04T10:41:03;103754.03;;;10.62;71.95
35910;BME280;22004;49.120;-0.200;2023-02-04T10:43:31;103761.09;;;10.88;70.72
35910;BME280;22004;49.120;-0.200;2023-02-04T10:46:03;103765.38;;;11.17;70.23
35910;BME280;22004;49.120;-0.200;2023-02-04T10:48:29;103761.03;;;10.90;70.42
35910;BME280;22004;49.120;-0.200;2023-02-04T10:51:03;103757.19;;;11.18;70.00
35910;BME280;22004;49.120;-0.200;2023-02-04T10:53:28;103764.44;;;11.05;69.87
35910;BME280;22004;49.120;-0.200;2023-02-04T10:56:16;103764.25;;;10.95;69.95
35910;BME280;22004;49.120;-0.200;2023-02-04T10:58:42;103772.38;;;10.94;70.43
35910;BME280;22004;49.120;-0.200;2023-02-04T11:01:09;103770.47;;;10.96;69.75
35910;BME280;22004;49.120;-0.200;2023-02-04T11:03:37;103770.16;;;11.00;69.53
35910;BME280;22004;49.120;-0.200;2023-02-04T11:06:10;103770.69;;;10.93;69.32
35910;BME280;22004;49.120;-0.200;2023-02-04T11:08:36;103763.72;;;10.90;69.66
35910;BME280;22004;49.120;-0.200;2023-02-04T11:11:03;103758.53;;;11.00;68.15
35910;BME280;22004;49.120;-0.200;2023-02-04T11:13:41;103749.75;;;10.85;70.18
35910;BME280;22004;49.120;-0.200;2023-02-04T11:21:27;103746.16;;;11.10;69.01
35910;BME280;22004;49.120;-0.200;2023-02-04T11:39:30;103748.41;;;11.03;69.12
35910;BME280;22004;49.120;-0.200;2023-02-04T11:41:58;103747.25;;;10.95;69.45
35910;BME280;22004;49.120;-0.200;2023-02-04T11:44:26;103753.50;;;10.95;68.82
35910;BME280;22004;49.120;-0.200;2023-02-04T11:46:53;103757.88;;;10.96;69.49
35910;BME280;22004;49.120;-0.200;2023-02-04T11:49:20;103753.91;;;11.02;69.39
35910;BME280;22004;49.120;-0.200;2023-02-04T11:51:47;103754.84;;;11.13;69.05
35910;BME280;22004;49.120;-0.200;2023-02-04T11:54:14;103749.50;;;11.01;68.42
35910;BME280;22004;49.120;-0.200;2023-02-04T11:56:46;103758.75;;;10.84;69.44
35910;BME280;22004;49.120;-0.200;2023-02-04T11:59:14;103749.25;;;11.04;68.28
35910;BME280;22004;49.120;-0.200;2023-02-04T12:01:41;103753.25;;;10.98;68.86
35910;BME280;22004;49.120;-0.200;2023-02-04T12:04:23;103757.56;;;11.01;68.60
35910;BME280;22004;49.120;-0.200;2023-02-04T12:07:01;103758.56;;;11.24;69.00
35910;BME280;22004;49.120;-0.200;2023-02-04T12:09:28;103756.13;;;11.08;68.06
35910;BME280;22004;49.120;-0.200;2023-02-04T12:11:57;103761.31;;;11.11;68.37
35910;BME280;22004;49.120;-0.200;2023-02-04T12:14:34;103759.06;;;11.05;68.83
35910;BME280;22004;49.120;-0.200;2023-02-04T12:17:14;103754.16;;;11.23;68.04
35910;BME280;22004;49.120;-0.200;2023-02-04T12:19:40;103762.34;;;11.34;68.08
35910;BME280;22004;49.120;-0.200;2023-02-04T12:22:05;103756.00;;;11.22;67.53
35910;BME280;22004;49.120;-0.200;2023-02-04T12:24:30;103754.75;;;11.15;68.15
35910;BME280;22004;49.120;-0.200;2023-02-04T12:26:58;103754.69;;;11.28;67.10
35910;BME280;22004;49.120;-0.200;2023-02-04T12:29:23;103753.16;;;11.36;67.93
35910;BME280;22004;49.120;-0.200;2023-02-04T12:31:49;103747.41;;;11.17;67.94
35910;BME280;22004;49.120;-0.200;2023-02-04T12:34:14;103743.13;;;11.15;67.22
35910;BME280;22004;49.120;-0.200;2023-02-04T12:36:41;103739.28;;;11.06;67.98
35910;BME280;22004;49.120;-0.200;2023-02-04T12:39:06;103741.25;;;11.28;68.02
35910;BME280;22004;49.120;-0.200;2023-02-04T12:41:32;103744.00;;;11.15;67.82
35910;BME280;22004;49.120;-0.200;2023-02-04T12:44:00;103737.28;;;11.21;67.55
35910;BME280;22004;49.120;-0.200;2023-02-04T12:46:25;103744.91;;;10.90;67.14
35910;BME280;22004;49.120;-0.200;2023-02-04T12:48:50;103735.34;;;11.23;68.07
35910;BME280;22004;49.120;-0.200;2023-02-04T12:51:16;103737.75;;;11.15;68.00
35910;BME280;22004;49.120;-0.200;2023-02-04T12:53:41;103742.69;;;11.08;66.35
35910;BME280;22004;49.120;-0.200;2023-02-04T12:56:07;103742.41;;;11.36;67.22
35910;BME280;22004;49.120;-0.200;2023-02-04T12:58:32;103743.16;;;11.02;67.88
35910;BME280;22004;49.120;-0.200;2023-02-04T13:00:57;103743.84;;;11.29;67.05